Time;durP1;ratioP1;P1;durP2;ratioP2;P2;SDS_P1;SDS_P2;PMS_P1;PMS_P2;Temp;Humidity;BMP_temperature;BMP_pressure;BME280_temperature;BME280_humidity;BME280_pressure;Samples;Min_cycle;Max_cycle;Signal;HPM_P1;HPM_P2
2022/07/28 00:02:25;;;;;;;5.17;3.63;;;16.00;99.90;;;;;;5074454;28;20270;-77
2022/07/28 00:04:53;;;;;;;6.70;3.53;;;16.00;99.90;;;;;;5074844;28;20246;-78
2022/07/28 00:07:20;;;;;;;5.57;3.20;;;15.90;99.90;;;;;;5074278;28;20677;-78
2022/07/28 00:09:47;;;;;;;8.93;3.50;;;15.90;99.90;;;;;;5074422;28;20197;-78
2022/07/28 00:12:13;;;;;;;7.03;3.60;;;15.90;99.90;;;;;;5074247;28;20224;-78
2022/07/28 00:14:40;;;;;;;7.10;3.07;;;15.90;99.90;;;;;;5074023;28;20580;-78
2022/07/28 00:17:07;;;;;;;5.97;3.27;;;15.80;99.90;;;;;;5074092;28;20262;-78
2022/07/28 00:19:35;;;;;;;5.00;3.30;;;15.80;99.90;;;;;;5074288;28;20197;-78
2022/07/28 00:22:02;;;;;;;6.57;3.63;;;15.80;99.90;;;;;;5074277;28;20205;-78
2022/07/28 00:24:30;;;;;;;5.60;3.37;;;15.70;99.90;;;;;;5074109;28;20200;-79
2022/07/28 00:26:57;;;;;;;5.63;3.73;;;15.70;99.90;;;;;;5074156;28;20200;-78
2022/07/28 00:29:24;;;;;;;6.97;3.40;;;15.70;99.90;;;;;;5073288;28;20205;-78
2022/07/28 00:31:50;;;;;;;4.67;3.40;;;15.70;99.90;;;;;;5074807;28;20216;-79
2022/07/28 00:34:17;;;;;;;5.90;3.40;;;15.60;99.90;;;;;;5075052;28;20227;-72
2022/07/28 00:36:45;;;;;;;4.13;3.00;;;15.60;99.90;;;;;;5076038;28;20197;-71
2022/07/28 00:39:12;;;;;;;5.30;3.43;;;15.70;99.90;;;;;;5077250;28;20290;-71
2022/07/28 00:41:39;;;;;;;8.23;3.00;;;15.70;99.90;;;;;;5078650;28;20197;-71
2022/07/28 00:44:07;;;;;;;6.27;3.33;;;15.70;99.90;;;;;;5077815;28;20227;-71
2022/07/28 00:46:34;;;;;;;5.17;3.63;;;15.70;99.90;;;;;;5077999;28;20256;-71
2022/07/28 00:49:01;;;;;;;6.90;3.50;;;15.60;99.90;;;;;;5074585;28;20223;-71
2022/07/28 00:51:28;;;;;;;7.47;3.63;;;15.70;99.90;;;;;;5073490;28;20221;-71
2022/07/28 00:53:57;;;;;;;5.80;3.30;;;15.70;99.90;;;;;;5073466;28;20200;-72
2022/07/28 00:56:24;;;;;;;4.60;3.10;;;15.70;99.90;;;;;;5073303;28;20197;-71
2022/07/28 00:58:51;;;;;;;5.60;3.23;;;15.70;99.90;;;;;;5073604;28;20201;-71
2022/07/28 01:01:19;;;;;;;4.87;3.30;;;15.60;99.90;;;;;;5073465;28;20197;-71
2022/07/28 01:03:50;;;;;;;5.63;3.47;;;15.60;99.90;;;;;;5073361;28;20627;-71
2022/07/28 01:06:30;;;;;;;6.30;3.57;;;15.60;99.90;;;;;;5073152;28;20675;-71
2022/07/28 01:09:09;;;;;;;3.97;3.30;;;15.50;99.90;;;;;;5073022;28;20200;-71
2022/07/28 01:11:45;;;;;;;5.70;3.40;;;15.50;99.90;;;;;;5073330;28;20224;-71
2022/07/28 01:14:21;;;;;;;6.13;3.60;;;15.50;99.90;;;;;;5073180;28;20200;-71
2022/07/28 01:16:52;;;;;;;4.30;3.23;;;15.40;99.90;;;;;;5073222;28;20200;-71
2022/07/28 01:19:35;;;;;;;5.13;3.70;;;15.30;99.90;;;;;;5073038;28;20250;-71
2022/07/28 01:22:04;;;;;;;3.80;3.30;;;15.40;99.90;;;;;;5073278;28;20204;-71
2022/07/28 01:24:40;;;;;;;7.07;3.80;;;15.40;99.90;;;;;;5073033;28;20254;-71
2022/07/28 01:27:10;;;;;;;5.13;3.63;;;15.40;99.90;;;;;;5073087;28;20232;-71
2022/07/28 01:29:54;;;;;;;6.13;4.00;;;15.30;99.90;;;;;;5072737;28;20559;-71
2022/07/28 01:32:25;;;;;;;9.27;3.83;;;15.40;99.90;;;;;;5073112;28;20220;-71
2022/07/28 01:34:57;;;;;;;4.07;3.30;;;15.40;99.90;;;;;;5072981;28;20197;-71
2022/07/28 01:37:27;;;;;;;6.07;3.40;;;15.50;99.90;;;;;;5071609;28;20193;-72
2022/07/28 01:39:57;;;;;;;5.40;3.30;;;15.50;99.90;;;;;;5072584;28;20225;-71
2022/07/28 01:42:30;;;;;;;4.10;3.43;;;15.50;99.90;;;;;;5072660;28;20226;-72
2022/07/28 01:44:59;;;;;;;6.03;3.70;;;15.40;99.90;;;;;;5072970;28;20234;-71
2022/07/28 01:47:29;;;;;;;6.60;3.90;;;15.40;99.90;;;;;;5072665;28;20648;-72
2022/07/28 01:49:59;;;;;;;5.90;3.30;;;15.30;99.90;;;;;;5072680;28;20197;-71
2022/07/28 01:52:28;;;;;;;5.20;4.07;;;15.30;99.90;;;;;;5072592;28;20569;-72
2022/07/28 01:54:56;;;;;;;8.30;3.60;;;15.20;99.90;;;;;;5072605;28;20206;-72
2022/07/28 01:57:24;;;;;;;5.17;3.40;;;15.30;99.90;;;;;;5072823;28;20205;-71
2022/07/28 01:59:52;;;;;;;7.00;3.80;;;15.30;99.90;;;;;;5072769;28;20205;-71
2022/07/28 02:02:20;;;;;;;4.97;3.40;;;15.30;99.90;;;;;;5072737;28;20254;-71
2022/07/28 02:04:50;;;;;;;5.87;3.90;;;15.30;99.90;;;;;;5072602;28;20197;-71
2022/07/28 02:07:20;;;;;;;8.70;4.07;;;15.30;99.90;;;;;;5072466;28;20197;-71
2022/07/28 02:09:47;;;;;;;6.13;3.83;;;15.20;99.90;;;;;;5072826;28;20197;-71
2022/07/28 02:12:16;;;;;;;6.23;3.87;;;15.20;99.90;;;;;;5072582;28;20623;-71
2022/07/28 02:14:46;;;;;;;4.97;3.30;;;15.20;99.90;;;;;;5072379;28;20660;-71
2022/07/28 02:17:17;;;;;;;7.27;3.87;;;15.30;99.90;;;;;;5072503;28;20227;-71
2022/07/28 02:19:45;;;;;;;6.30;3.47;;;15.30;99.90;;;;;;5072439;28;20640;-71
2022/07/28 02:22:14;;;;;;;7.37;3.93;;;15.40;99.90;;;;;;5072620;28;20258;-72
2022/07/28 02:24:43;;;;;;;5.50;3.60;;;15.30;99.90;;;;;;5072514;28;20561;-72
2022/07/28 02:27:15;;;;;;;4.73;3.80;;;15.40;99.90;;;;;;5072376;28;20193;-72
2022/07/28 02:29:44;;;;;;;6.67;4.13;;;15.40;99.90;;;;;;5072441;28;20197;-72
2022/07/28 02:32:17;;;;;;;8.30;3.80;;;15.50;99.90;;;;;;5072134;28;20828;-72
2022/07/28 02:34:44;;;;;;;5.00;3.77;;;15.50;99.90;;;;;;5072581;28;20617;-71
2022/07/28 02:37:14;;;;;;;7.50;3.13;;;15.50;99.90;;;;;;5072514;28;20220;-71
2022/07/28 02:39:45;;;;;;;9.50;3.90;;;15.50;99.90;;;;;;5072296;28;20233;-71
2022/07/28 02:42:17;;;;;;;4.67;3.53;;;15.60;99.90;;;;;;5072438;28;20204;-71
2022/07/28 02:44:48;;;;;;;5.57;3.40;;;15.60;99.90;;;;;;5072129;28;20603;-71
2022/07/28 02:47:18;;;;;;;5.50;4.73;;;15.60;99.90;;;;;;5072465;28;20250;-71
2022/07/28 02:49:46;;;;;;;6.83;4.73;;;15.60;99.90;;;;;;5072324;28;20270;-72
2022/07/28 02:52:15;;;;;;;5.40;4.13;;;15.60;99.90;;;;;;5073684;28;20678;-71
2022/07/28 02:54:44;;;;;;;6.97;5.30;;;15.50;99.90;;;;;;5075680;28;20653;-72
2022/07/28 02:57:13;;;;;;;5.10;4.60;;;15.50;99.90;;;;;;5075679;28;20197;-72
2022/07/28 02:59:40;;;;;;;7.40;4.50;;;15.50;99.90;;;;;;5075539;28;20686;-71
2022/07/28 03:02:08;;;;;;;5.33;4.53;;;15.50;99.90;;;;;;5075741;28;20205;-71
2022/07/28 03:07:21;;;;;;;5.70;4.20;;;15.40;99.90;;;;;;5075587;28;20659;-71
2022/07/28 03:09:49;;;;;;;6.40;4.20;;;15.40;99.90;;;;;;5075442;28;20255;-71
2022/07/28 03:12:15;;;;;;;7.80;4.07;;;15.30;99.90;;;;;;5075382;28;20626;-71
2022/07/28 03:14:42;;;;;;;5.37;3.80;;;15.30;99.90;;;;;;5075503;28;20247;-72
2022/07/28 03:17:09;;;;;;;4.53;4.13;;;15.30;99.90;;;;;;5075341;28;20628;-72
2022/07/28 03:19:37;;;;;;;6.73;4.20;;;15.30;99.90;;;;;;5075414;28;20205;-71
2022/07/28 03:22:04;;;;;;;5.40;3.80;;;15.30;99.90;;;;;;5075315;28;20201;-72
2022/07/28 03:24:35;;;;;;;5.67;4.03;;;15.20;99.90;;;;;;5075252;28;20196;-72
2022/07/28 03:27:07;;;;;;;5.93;3.80;;;15.20;99.90;;;;;;5075566;28;20208;-72
2022/07/28 03:29:35;;;;;;;4.53;3.80;;;15.10;99.90;;;;;;5076349;28;20262;-72
2022/07/28 03:32:01;;;;;;;7.00;4.63;;;15.20;99.90;;;;;;5077902;28;20275;-71
2022/07/28 03:34:29;;;;;;;7.40;4.40;;;15.10;99.90;;;;;;5076435;28;20239;-71
2022/07/28 03:37:01;;;;;;;4.40;3.90;;;15.20;99.90;;;;;;5075529;28;20733;-71
2022/07/28 03:39:29;;;;;;;5.63;4.03;;;15.00;99.90;;;;;;5075290;28;20229;-71
2022/07/28 03:41:59;;;;;;;9.07;4.83;;;14.90;99.90;;;;;;5075457;28;20250;-71
2022/07/28 03:44:27;;;;;;;5.63;4.57;;;15.00;99.90;;;;;;5074880;28;20648;-71
2022/07/28 03:46:54;;;;;;;6.37;4.23;;;15.00;99.90;;;;;;5074890;28;20254;-71
2022/07/28 03:49:20;;;;;;;7.33;3.87;;;15.10;99.90;;;;;;5074572;28;20576;-72
2022/07/28 03:51:47;;;;;;;6.47;4.20;;;15.00;99.90;;;;;;5075029;28;20271;-70
2022/07/28 03:54:14;;;;;;;7.63;4.80;;;15.10;99.90;;;;;;5074796;28;20569;-71
2022/07/28 03:56:40;;;;;;;8.13;4.20;;;15.10;99.90;;;;;;5074570;28;20710;-71
2022/07/28 03:59:10;;;;;;;6.10;4.17;;;15.10;99.90;;;;;;5074363;28;20243;-71
2022/07/28 04:01:36;;;;;;;6.30;4.60;;;15.10;99.90;;;;;;5074473;28;20208;-71
2022/07/28 04:04:03;;;;;;;6.97;4.00;;;15.10;99.90;;;;;;5074335;28;20193;-71
2022/07/28 04:06:30;;;;;;;6.67;3.70;;;15.20;99.90;;;;;;5074533;28;20205;-71
2022/07/28 04:08:56;;;;;;;9.33;5.07;;;15.10;99.90;;;;;;5074588;28;20258;-71
2022/07/28 04:11:23;;;;;;;6.23;4.47;;;15.10;99.90;;;;;;5074173;28;20197;-73
2022/07/28 04:13:50;;;;;;;5.80;3.97;;;15.10;99.90;;;;;;5074284;28;20242;-71
2022/07/28 04:16:18;;;;;;;8.20;3.83;;;15.20;99.90;;;;;;5074007;28;20201;-70
2022/07/28 04:18:44;;;;;;;5.40;3.80;;;15.10;99.90;;;;;;5073997;28;20197;-71
2022/07/28 04:21:11;;;;;;;9.13;4.13;;;15.20;99.90;;;;;;5074154;28;20197;-70
2022/07/28 04:23:38;;;;;;;4.93;3.90;;;15.20;99.90;;;;;;5074091;28;20205;-70
2022/07/28 04:26:04;;;;;;;5.23;3.63;;;15.20;99.90;;;;;;5073971;28;20255;-73
2022/07/28 04:28:31;;;;;;;7.00;3.87;;;15.20;99.90;;;;;;5073905;28;20197;-72
2022/07/28 04:30:58;;;;;;;8.27;3.73;;;15.30;99.90;;;;;;5073760;28;20197;-72
2022/07/28 04:33:26;;;;;;;6.80;3.73;;;15.30;99.90;;;;;;5073928;28;20224;-72
2022/07/28 04:35:53;;;;;;;8.03;4.20;;;15.40;99.90;;;;;;5073798;28;20667;-72
2022/07/28 04:38:19;;;;;;;6.60;4.23;;;15.50;99.90;;;;;;5073912;28;20215;-72
2022/07/28 04:40:47;;;;;;;7.37;4.07;;;15.40;99.90;;;;;;5073249;28;20710;-72
2022/07/28 04:43:14;;;;;;;4.83;3.50;;;15.40;99.90;;;;;;5073720;28;20230;-72
2022/07/28 04:45:40;;;;;;;5.30;3.73;;;15.50;99.90;;;;;;5073494;28;20209;-72
2022/07/28 04:48:07;;;;;;;6.63;3.77;;;15.60;99.90;;;;;;5073700;28;20251;-72
2022/07/28 04:50:35;;;;;;;8.93;4.00;;;15.70;99.90;;;;;;5073597;28;20230;-72
2022/07/28 04:53:01;;;;;;;7.07;3.70;;;15.80;99.90;;;;;;5073323;28;20278;-72
2022/07/28 04:55:28;;;;;;;5.33;4.60;;;15.70;99.90;;;;;;5073448;28;20227;-71
2022/07/28 04:57:55;;;;;;;5.60;3.93;;;15.80;99.90;;;;;;5073256;28;20660;-70
2022/07/28 05:00:22;;;;;;;5.53;3.78;;;15.80;99.90;;;;;;5073214;28;20250;-71
2022/07/28 05:02:48;;;;;;;5.40;3.70;;;15.90;99.90;;;;;;5073400;28;20545;-71
2022/07/28 05:05:15;;;;;;;5.78;3.92;;;16.00;99.90;;;;;;5073236;28;20196;-71
2022/07/28 05:07:44;;;;;;;5.43;3.43;;;16.10;99.90;;;;;;5073026;28;20208;-71
2022/07/28 05:10:11;;;;;;;5.68;4.80;;;16.10;99.90;;;;;;5073156;28;20283;-71
2022/07/28 05:12:38;;;;;;;5.50;3.50;;;16.10;99.90;;;;;;5072967;28;20267;-72
2022/07/28 05:15:06;;;;;;;5.00;3.80;;;16.20;99.90;;;;;;5072611;28;20197;-71
2022/07/28 05:17:33;;;;;;;3.75;3.33;;;16.30;99.90;;;;;;5073018;28;20204;-71
2022/07/28 05:19:59;;;;;;;5.93;4.18;;;16.40;99.90;;;;;;5072887;28;20197;-71
2022/07/28 05:22:26;;;;;;;5.68;3.28;;;16.60;99.90;;;;;;5072843;28;20209;-72
2022/07/28 05:24:54;;;;;;;3.90;3.35;;;16.70;99.90;;;;;;5072816;28;20193;-72
2022/07/28 05:27:21;;;;;;;5.90;4.10;;;16.80;99.90;;;;;;5072504;28;20201;-72
2022/07/28 05:29:47;;;;;;;4.45;3.60;;;16.80;99.90;;;;;;5072370;28;20543;-72
2022/07/28 05:32:14;;;;;;;4.68;3.67;;;16.90;99.90;;;;;;5072626;28;20217;-71
2022/07/28 05:34:41;;;;;;;7.30;3.70;;;16.90;99.90;;;;;;5072852;28;20714;-71
2022/07/28 05:37:07;;;;;;;6.75;4.10;;;16.90;99.90;;;;;;5072883;28;20205;-72
2022/07/28 05:39:34;;;;;;;7.80;3.47;;;17.10;99.90;;;;;;5072458;28;20282;-72
2022/07/28 05:42:02;;;;;;;3.97;3.42;;;17.10;99.90;;;;;;5072666;28;20205;-72
2022/07/28 05:44:29;;;;;;;7.32;3.90;;;17.20;99.90;;;;;;5072588;28;20197;-72
2022/07/28 05:46:55;;;;;;;5.15;3.65;;;17.30;99.90;;;;;;5072548;28;20640;-71
2022/07/28 05:49:22;;;;;;;6.32;3.30;;;17.30;99.90;;;;;;5072745;28;20200;-72
2022/07/28 05:51:49;;;;;;;5.43;3.83;;;17.40;99.90;;;;;;5072156;28;20625;-72
2022/07/28 05:54:15;;;;;;;4.43;3.47;;;17.40;99.90;;;;;;5072089;28;20692;-72
2022/07/28 05:56:42;;;;;;;6.15;3.55;;;17.50;99.90;;;;;;5072419;28;20722;-72
2022/07/28 05:59:10;;;;;;;5.68;3.75;;;17.60;99.90;;;;;;5072781;28;20193;-72
2022/07/28 06:01:38;;;;;;;6.05;4.00;;;17.60;99.90;;;;;;5072729;28;20602;-72
2022/07/28 06:04:04;;;;;;;9.98;4.80;;;17.70;99.90;;;;;;5072391;28;20255;-72
2022/07/28 06:06:31;;;;;;;7.20;3.90;;;17.70;99.90;;;;;;5072134;28;20250;-72
2022/07/28 06:08:58;;;;;;;6.63;4.47;;;17.70;99.90;;;;;;5072413;28;20220;-71
2022/07/28 06:11:24;;;;;;;7.90;4.88;;;17.70;99.90;;;;;;5072274;28;20223;-71
2022/07/28 06:13:52;;;;;;;10.70;6.35;;;17.90;99.90;;;;;;5072422;28;20221;-71
2022/07/28 06:16:21;;;;;;;9.82;6.00;;;18.00;99.90;;;;;;5072552;28;20201;-71
2022/07/28 06:18:48;;;;;;;11.52;5.53;;;18.00;99.90;;;;;;5071047;28;20247;-72
2022/07/28 06:21:15;;;;;;;10.55;3.90;;;18.10;99.90;;;;;;5072014;28;20204;-73
2022/07/28 06:23:42;;;;;;;6.80;4.38;;;18.20;99.90;;;;;;5072237;28;20201;-73
2022/07/28 06:26:08;;;;;;;5.72;4.35;;;18.40;99.90;;;;;;5072327;28;20201;-73
2022/07/28 06:28:35;;;;;;;6.85;4.25;;;18.60;99.90;;;;;;5076116;28;20250;-71
2022/07/28 06:31:02;;;;;;;8.68;4.10;;;18.80;99.90;;;;;;5076235;28;20223;-73
2022/07/28 06:33:30;;;;;;;11.65;4.43;;;18.80;99.90;;;;;;5076096;28;20229;-73
2022/07/28 06:35:56;;;;;;;6.32;4.20;;;18.90;99.90;;;;;;5077403;28;20219;-74
2022/07/28 06:38:24;;;;;;;7.18;3.80;;;18.80;99.90;;;;;;5078633;28;20288;-73
2022/07/28 06:40:51;;;;;;;7.72;4.13;;;18.80;99.90;;;;;;5076975;28;20320;-72
2022/07/28 06:43:17;;;;;;;5.53;3.42;;;18.90;99.90;;;;;;5075833;28;20204;-72
2022/07/28 06:45:44;;;;;;;8.23;4.00;;;19.00;99.90;;;;;;5075654;28;20247;-72
2022/07/28 06:48:12;;;;;;;5.70;3.95;;;19.10;99.90;;;;;;5075772;28;20192;-71
2022/07/28 06:50:41;;;;;;;6.07;4.38;;;19.20;99.90;;;;;;5075428;28;20537;-72
2022/07/28 06:53:08;;;;;;;5.65;3.78;;;19.20;99.90;;;;;;5075609;28;20591;-72
2022/07/28 06:55:34;;;;;;;5.05;3.95;;;19.40;99.90;;;;;;5075816;28;20254;-72
2022/07/28 06:58:01;;;;;;;6.80;4.53;;;19.50;99.90;;;;;;5075611;28;20196;-73
2022/07/28 07:00:28;;;;;;;7.65;3.97;;;19.50;99.90;;;;;;5075491;28;20223;-72
2022/07/28 07:02:54;;;;;;;7.47;3.83;;;19.70;99.90;;;;;;5075366;28;20220;-72
2022/07/28 07:05:21;;;;;;;7.20;3.85;;;19.70;99.90;;;;;;5075291;28;20201;-72
2022/07/28 07:07:49;;;;;;;7.57;4.20;;;19.70;99.90;;;;;;5075533;28;20207;-71
2022/07/28 07:10:16;;;;;;;7.63;4.25;;;19.70;99.90;;;;;;5075175;28;20193;-72
2022/07/28 07:12:43;;;;;;;8.68;4.68;;;19.70;99.90;;;;;;5075035;28;20221;-72
2022/07/28 07:15:11;;;;;;;6.30;4.10;;;19.90;99.90;;;;;;5075103;28;20196;-89
2022/07/28 07:17:37;;;;;;;4.18;3.70;;;20.00;99.90;;;;;;5075103;28;20691;-72
2022/07/28 07:20:05;;;;;;;7.43;4.35;;;20.10;99.90;;;;;;5074937;28;20205;-72
2022/07/28 07:22:32;;;;;;;5.78;4.15;;;20.20;99.90;;;;;;5075306;28;20201;-72
2022/07/28 07:25:09;;;;;;;4.65;3.83;;;20.20;99.90;;;;;;5074738;28;20201;-71
2022/07/28 07:27:35;;;;;;;9.70;4.40;;;20.20;99.90;;;;;;5074777;28;20206;-72
2022/07/28 07:30:03;;;;;;;6.88;4.72;;;20.20;99.90;;;;;;5074737;28;20193;-73
2022/07/28 07:32:30;;;;;;;9.27;5.20;;;20.40;99.90;;;;;;5073479;28;20211;-73
2022/07/28 07:34:57;;;;;;;6.50;5.25;;;20.50;99.90;;;;;;5082788;28;20284;-73
2022/07/28 07:37:23;;;;;;;6.43;4.78;;;20.60;99.90;;;;;;5074559;28;20251;-71
2022/07/28 07:39:50;;;;;;;6.82;5.05;;;20.70;99.90;;;;;;5083033;28;20223;-71
2022/07/28 07:42:18;;;;;;;8.98;5.53;;;20.80;99.90;;;;;;5100525;28;20195;-70
2022/07/28 07:44:44;;;;;;;6.45;5.32;;;21.00;99.90;;;;;;5115060;28;20196;-72
2022/07/28 07:47:11;;;;;;;10.55;5.65;;;21.20;99.90;;;;;;5115227;28;20244;-71
2022/07/28 07:49:39;;;;;;;9.88;5.00;;;21.30;99.90;;;;;;5114907;28;20578;-71
2022/07/28 07:52:06;;;;;;;5.53;4.75;;;21.50;99.90;;;;;;5115044;28;20192;-72
2022/07/28 07:54:33;;;;;;;5.68;4.13;;;21.70;99.90;;;;;;5114859;28;20223;-70
2022/07/28 07:57:00;;;;;;;7.43;4.50;;;21.80;99.90;;;;;;5114962;28;20191;-72
2022/07/28 07:59:29;;;;;;;7.82;4.20;;;22.00;99.90;;;;;;5114650;28;20240;-70
2022/07/28 08:01:56;;;;;;;10.85;5.10;;;22.00;99.90;;;;;;5090264;28;20603;-74
2022/07/28 08:04:23;;;;;;;7.38;4.63;;;22.10;99.90;;;;;;5074522;28;20595;-78
2022/07/28 08:06:51;;;;;;;7.20;4.25;;;22.10;99.90;;;;;;5078599;28;20197;-76
2022/07/28 08:09:17;;;;;;;8.65;4.13;;;22.20;99.90;;;;;;5075253;28;20283;-75
2022/07/28 08:11:44;;;;;;;9.70;4.72;;;22.40;99.90;;;;;;5073891;28;20285;-76
2022/07/28 08:14:11;;;;;;;7.82;4.57;;;22.70;99.90;;;;;;5074224;28;20278;-76
2022/07/28 08:16:39;;;;;;;8.00;4.63;;;22.80;99.90;;;;;;5074196;28;20254;-78
2022/07/28 08:19:06;;;;;;;8.18;4.25;;;22.80;99.90;;;;;;5074165;28;20568;-75
2022/07/28 08:21:32;;;;;;;7.10;4.53;;;22.90;99.90;;;;;;5073870;28;20193;-75
2022/07/28 08:23:59;;;;;;;8.18;4.78;;;23.00;99.90;;;;;;5074014;28;20205;-74
2022/07/28 08:26:27;;;;;;;6.15;5.03;;;23.10;99.90;;;;;;5073650;28;20603;-74
2022/07/28 08:28:54;;;;;;;7.18;5.00;;;23.20;99.90;;;;;;5073704;28;20197;-75
2022/07/28 08:31:21;;;;;;;7.93;5.03;;;23.10;99.90;;;;;;5073724;28;20205;-74
2022/07/28 08:33:49;;;;;;;10.00;5.40;;;23.10;99.90;;;;;;5073494;28;20588;-74
2022/07/28 08:36:16;;;;;;;6.57;5.20;;;23.00;99.90;;;;;;5073647;28;20200;-76
2022/07/28 08:38:43;;;;;;;7.10;5.22;;;23.10;99.90;;;;;;5073572;28;20196;-74
2022/07/28 08:41:17;;;;;;;11.75;5.38;;;23.40;99.90;;;;;;5073208;28;20364;-74
2022/07/28 08:43:47;;;;;;;6.00;4.70;;;23.50;99.90;;;;;;5073903;28;20231;-76
2022/07/28 08:46:14;;;;;;;6.97;5.35;;;23.60;99.90;;;;;;5071715;28;20197;-76
2022/07/28 08:48:42;;;;;;;5.75;5.13;;;23.70;99.90;;;;;;5092308;28;20245;-77
2022/07/28 08:51:12;;;;;;;8.90;4.88;;;23.90;99.90;;;;;;5092833;28;20196;-75
2022/07/28 08:53:40;;;;;;;8.23;5.68;;;24.20;99.90;;;;;;5092985;28;20687;-74
2022/07/28 08:56:08;;;;;;;7.68;4.90;;;24.20;99.60;;;;;;5093322;28;20567;-75
2022/07/28 08:58:36;;;;;;;9.05;5.32;;;24.30;99.00;;;;;;5093303;28;20556;-76
2022/07/28 09:01:05;;;;;;;7.97;5.05;;;24.50;98.90;;;;;;5092063;28;20204;-76
2022/07/28 09:03:32;;;;;;;6.30;4.95;;;24.90;97.70;;;;;;5093378;28;20202;-75
2022/07/28 09:05:59;;;;;;;7.60;5.25;;;25.20;96.80;;;;;;5093147;28;20200;-75
2022/07/28 09:08:28;;;;;;;5.82;5.00;;;25.40;95.70;;;;;;5093655;28;20261;-75
2022/07/28 09:10:55;;;;;;;7.68;5.38;;;25.50;94.50;;;;;;5110631;28;20203;-75
2022/07/28 09:13:22;;;;;;;5.68;5.18;;;25.90;93.20;;;;;;5090035;28;20231;-75
2022/07/28 09:15:49;;;;;;;11.10;5.25;;;26.00;91.60;;;;;;5080904;28;20222;-75
2022/07/28 09:18:17;;;;;;;6.63;5.00;;;26.00;90.20;;;;;;5093530;28;20200;-75
2022/07/28 09:20:45;;;;;;;7.38;5.00;;;26.10;90.40;;;;;;5096309;28;20192;-75
2022/07/28 09:23:12;;;;;;;9.82;5.10;;;26.10;88.50;;;;;;5098424;28;20227;-74
2022/07/28 09:25:40;;;;;;;10.13;5.32;;;26.40;87.40;;;;;;5094371;28;20204;-74
2022/07/28 09:28:09;;;;;;;7.50;4.93;;;26.80;83.80;;;;;;5093022;28;20200;-74
2022/07/28 09:30:39;;;;;;;7.18;4.90;;;27.00;79.40;;;;;;5093069;28;20402;-74
2022/07/28 09:33:20;;;;;;;9.18;5.15;;;27.30;76.80;;;;;;5092869;28;20273;-74
2022/07/28 09:35:51;;;;;;;7.95;5.05;;;27.30;74.10;;;;;;5092828;28;20681;-74
2022/07/28 09:38:19;;;;;;;9.02;5.22;;;27.30;73.40;;;;;;5093003;28;20204;-73
2022/07/28 09:40:58;;;;;;;7.28;5.57;;;27.50;72.40;;;;;;5092754;28;20232;-74
2022/07/28 09:43:35;;;;;;;7.50;5.38;;;28.00;70.40;;;;;;5092759;28;20200;-74
2022/07/28 09:46:07;;;;;;;9.20;5.22;;;28.20;66.70;;;;;;5092882;28;20200;-74
2022/07/28 09:48:36;;;;;;;8.43;5.45;;;28.10;65.60;;;;;;5092785;28;20197;-74
2022/07/28 09:51:13;;;;;;;6.22;5.07;;;28.10;63.50;;;;;;5092678;28;20196;-75
2022/07/28 09:53:41;;;;;;;6.32;5.65;;;28.50;62.50;;;;;;5092592;28;20683;-75
2022/07/28 09:56:10;;;;;;;10.95;5.93;;;28.70;61.80;;;;;;5092575;28;20245;-74
2022/07/28 09:58:37;;;;;;;8.73;5.57;;;28.70;59.00;;;;;;5092935;28;20208;-73
2022/07/28 10:01:06;;;;;;;8.30;5.93;;;29.00;58.40;;;;;;5094382;28;20234;-74
2022/07/28 10:03:33;;;;;;;8.25;5.45;;;29.00;56.70;;;;;;5095656;28;20287;-74
2022/07/28 10:06:03;;;;;;;8.18;5.30;;;29.20;55.40;;;;;;5096861;28;20200;-74
2022/07/28 10:08:41;;;;;;;9.30;5.22;;;29.60;54.60;;;;;;5096745;28;20202;-74
2022/07/28 10:11:10;;;;;;;8.55;5.25;;;29.80;53.00;;;;;;5096514;28;20604;-74
2022/07/28 10:13:55;;;;;;;6.38;4.97;;;30.20;51.50;;;;;;5096547;28;20212;-73
2022/07/28 10:16:24;;;;;;;6.13;5.18;;;30.40;50.00;;;;;;5096348;28;20651;-73
2022/07/28 10:18:52;;;;;;;8.38;5.55;;;30.70;48.80;;;;;;5096297;28;20196;-73
2022/07/28 10:21:19;;;;;;;13.38;5.90;;;30.80;48.50;;;;;;5096535;28;20204;-73
2022/07/28 10:23:48;;;;;;;5.50;4.72;;;31.20;46.90;;;;;;5096554;28;20200;-74
2022/07/28 10:26:19;;;;;;;8.45;4.80;;;31.10;45.90;;;;;;5096522;28;20303;-74
2022/07/28 10:28:49;;;;;;;9.57;4.63;;;31.60;45.00;;;;;;5096295;28;20708;-74
2022/07/28 10:31:23;;;;;;;5.30;4.07;;;31.80;43.90;;;;;;5096122;28;20597;-74
2022/07/28 10:33:53;;;;;;;5.13;4.10;;;31.80;43.00;;;;;;5096081;28;20760;-76
2022/07/28 10:36:23;;;;;;;8.68;5.18;;;32.00;42.20;;;;;;5096234;28;20192;-76
2022/07/28 10:38:54;;;;;;;8.88;6.63;;;32.30;41.60;;;;;;5096129;28;20202;-76
2022/07/28 10:41:24;;;;;;;5.85;4.32;;;32.70;41.10;;;;;;5096260;28;20196;-77
2022/07/28 10:43:52;;;;;;;6.05;4.32;;;33.00;39.00;;;;;;5095995;28;20592;-76
2022/07/28 10:46:19;;;;;;;7.82;3.83;;;33.50;38.30;;;;;;5096296;28;20253;-75
2022/07/28 10:48:45;;;;;;;5.78;4.30;;;34.50;37.00;;;;;;5096086;28;20242;-76
2022/07/28 10:51:13;;;;;;;6.43;4.63;;;35.20;35.30;;;;;;5095928;28;20203;-76
2022/07/28 10:53:46;;;;;;;5.13;3.88;;;35.50;33.20;;;;;;5095905;28;20212;-77
2022/07/28 10:56:28;;;;;;;4.57;4.00;;;36.00;31.90;;;;;;5095644;28;20249;-77
2022/07/28 10:59:03;;;;;;;5.07;3.88;;;35.90;30.60;;;;;;5095916;28;20199;-76
2022/07/28 11:01:37;;;;;;;4.50;3.92;;;35.70;30.60;;;;;;5095922;28;20229;-77
2022/07/28 11:04:05;;;;;;;10.32;4.68;;;35.60;29.80;;;;;;5095626;28;20719;-77
2022/07/28 11:06:34;;;;;;;9.32;4.10;;;35.40;29.90;;;;;;5095630;28;20222;-77
2022/07/28 11:09:21;;;;;;;6.05;4.05;;;35.70;29.10;;;;;;5085997;28;20618;-77
2022/07/28 11:11:49;;;;;;;5.47;4.10;;;35.20;28.80;;;;;;5095081;28;20202;-77
2022/07/28 11:14:32;;;;;;;4.25;3.72;;;34.50;29.50;;;;;;5094836;28;20273;-76
2022/07/28 11:17:19;;;;;;;5.10;4.50;;;35.30;29.20;;;;;;5095300;28;20597;-77
2022/07/28 11:19:52;;;;;;;5.20;4.20;;;35.70;28.50;;;;;;5095400;28;20207;-77
2022/07/28 11:22:27;;;;;;;6.22;4.22;;;36.20;27.30;;;;;;5095348;28;20195;-76
2022/07/28 11:25:13;;;;;;;5.50;3.80;;;36.10;27.30;;;;;;5095516;28;20672;-77
2022/07/28 11:27:59;;;;;;;6.25;4.32;;;35.70;27.30;;;;;;5095204;28;20601;-75
2022/07/28 11:30:53;;;;;;;4.65;3.58;;;36.40;26.90;;;;;;5095621;28;20195;-77
2022/07/28 11:33:21;;;;;;;7.07;3.83;;;37.60;25.90;;;;;;5095238;28;20204;-74
2022/07/28 11:35:59;;;;;;;6.50;3.70;;;38.80;25.10;;;;;;5095247;28;20242;-75
2022/07/28 11:38:26;;;;;;;5.30;3.75;;;39.00;24.10;;;;;;5095495;28;20276;-74
2022/07/28 11:40:56;;;;;;;6.45;4.00;;;38.10;23.70;;;;;;5094999;28;20564;-74
2022/07/28 11:43:35;;;;;;;6.13;3.92;;;37.60;23.60;;;;;;5095335;28;20199;-77
2022/07/28 11:46:35;;;;;;;4.95;3.50;;;37.10;24.00;;;;;;5095144;28;20550;-79
2022/07/28 11:49:29;;;;;;;6.57;4.68;;;36.50;24.40;;;;;;5095046;28;20684;-77
2022/07/28 11:52:19;;;;;;;4.43;4.03;;;35.90;24.80;;;;;;5094999;28;20204;-75
2022/07/28 11:54:53;;;;;;;9.50;4.40;;;36.00;25.30;;;;;;5089573;28;20215;-78
2022/07/28 11:57:23;;;;;;;7.03;3.83;;;37.80;24.50;;;;;;5095484;28;20195;-79
2022/07/28 12:00:00;;;;;;;4.45;3.67;;;38.80;23.20;;;;;;5095464;28;20196;-78
2022/07/28 12:02:30;;;;;;;6.43;4.10;;;38.60;22.40;;;;;;5095811;28;20199;-77
2022/07/28 12:05:19;;;;;;;5.43;3.90;;;38.70;22.50;;;;;;5095036;28;20292;-77
2022/07/28 12:07:48;;;;;;;7.65;4.22;;;38.60;21.80;;;;;;5095279;28;20196;-77
2022/07/28 12:10:30;;;;;;;9.00;4.32;;;37.40;22.70;;;;;;5094865;28;20203;-77
2022/07/28 12:12:58;;;;;;;7.72;3.78;;;36.80;22.50;;;;;;5094446;28;20214;-77
2022/07/28 12:15:25;;;;;;;9.02;4.25;;;37.30;22.60;;;;;;5094192;28;20224;-77
2022/07/28 12:17:53;;;;;;;7.55;3.72;;;36.90;22.30;;;;;;5094459;28;20195;-76
2022/07/28 12:20:20;;;;;;;8.98;3.78;;;36.70;22.40;;;;;;5094468;28;20257;-77
2022/07/28 12:22:59;;;;;;;8.27;3.88;;;35.90;22.80;;;;;;5094397;28;20717;-78
2022/07/28 12:25:25;;;;;;;7.15;3.60;;;36.80;23.20;;;;;;5097462;28;20226;-78
2022/07/28 12:27:53;;;;;;;3.78;3.47;;;38.00;22.10;;;;;;5109610;28;20230;-77
2022/07/28 12:30:24;;;;;;;8.88;4.20;;;38.40;21.70;;;;;;5099303;28;20211;-78
2022/07/28 12:32:52;;;;;;;4.38;3.80;;;39.70;20.70;;;;;;5094094;28;20244;-78
2022/07/28 12:35:21;;;;;;;5.78;3.65;;;41.00;19.70;;;;;;5093860;28;20285;-78
2022/07/28 12:37:49;;;;;;;5.97;3.33;;;41.10;18.40;;;;;;5093912;28;20218;-78
2022/07/28 12:40:17;;;;;;;6.72;3.58;;;41.80;18.50;;;;;;5093638;28;20702;-78
2022/07/28 12:42:45;;;;;;;4.88;3.72;;;41.80;17.90;;;;;;5093735;28;20200;-78
2022/07/28 12:45:12;;;;;;;5.47;3.38;;;41.60;17.90;;;;;;5093969;28;20612;-77
2022/07/28 12:47:39;;;;;;;4.97;3.67;;;41.00;17.60;;;;;;5093881;28;20210;-78
2022/07/28 12:50:15;;;;;;;6.57;3.47;;;39.80;18.30;;;;;;5093862;28;20253;-78
2022/07/28 12:52:42;;;;;;;5.35;3.78;;;39.30;18.50;;;;;;5093710;28;20195;-78
2022/07/28 12:55:24;;;;;;;4.93;3.33;;;40.10;18.40;;;;;;5093298;28;20276;-79
2022/07/28 12:57:54;;;;;;;4.15;3.63;;;41.40;18.00;;;;;;5093583;28;20246;-78
2022/07/28 13:00:24;;;;;;;6.53;3.45;;;41.80;17.40;;;;;;5093740;28;20257;-78